createdAt,value
2022-10-04T00:00:53.686Z,96276
2022-10-04T00:02:03.353Z,96278
2022-10-04T00:03:13.088Z,96274
2022-10-04T00:04:21.779Z,96269
2022-10-04T00:05:30.483Z,96275
2022-10-04T00:06:40.166Z,96273
2022-10-04T00:07:47.856Z,96277
2022-10-04T00:08:57.515Z,96277
2022-10-04T00:10:07.207Z,96275
2022-10-04T00:11:15.891Z,96273
2022-10-04T00:12:25.612Z,96275
2022-10-04T00:13:33.302Z,96274
2022-10-04T00:14:42.985Z,96274
2022-10-04T00:15:52.747Z,96273
2022-10-04T00:17:01.416Z,96276
2022-10-04T00:18:10.068Z,96274
2022-10-04T00:19:19.753Z,96275
2022-10-04T00:20:30.426Z,96273
2022-10-04T00:21:40.318Z,96271
2022-10-04T00:22:48.910Z,96274
2022-10-04T00:23:57.575Z,96270
2022-10-04T00:25:07.264Z,96272
2022-10-04T00:26:15.928Z,96273
2022-10-04T00:27:24.593Z,96270
2022-10-04T00:28:33.438Z,96268
2022-10-04T00:29:42.025Z,96265
2022-10-04T00:30:51.703Z,96267
2022-10-04T00:31:59.395Z,96263
2022-10-04T00:33:09.087Z,96262
2022-10-04T00:34:18.760Z,96264
2022-10-04T00:35:27.433Z,96262
2022-10-04T00:36:36.082Z,96263
2022-10-04T00:37:45.763Z,96263
2022-10-04T00:38:55.444Z,96261
2022-10-04T00:40:05.154Z,96259
2022-10-04T00:41:12.813Z,96264
2022-10-04T00:42:22.491Z,96260
2022-10-04T00:43:32.208Z,96264
2022-10-04T00:44:38.881Z,96267
2022-10-04T00:45:47.642Z,96268
2022-10-04T00:46:56.294Z,96264
2022-10-04T00:48:04.976Z,96261
2022-10-04T00:49:14.661Z,96252
2022-10-04T00:50:23.318Z,96250
2022-10-04T00:51:33.028Z,96251
2022-10-04T00:52:42.711Z,96251
2022-10-04T00:53:50.371Z,96245
2022-10-04T00:55:00.049Z,96247
2022-10-04T00:56:08.728Z,96246
2022-10-04T00:57:17.446Z,96243
2022-10-04T00:58:27.113Z,96240
2022-10-04T00:59:35.783Z,96240
2022-10-04T01:00:45.482Z,96244
2022-10-04T01:01:55.155Z,96246
2022-10-04T01:03:03.827Z,96246
2022-10-04T01:04:12.499Z,96243
2022-10-04T01:05:21.231Z,96248
2022-10-04T01:06:30.874Z,96245
2022-10-04T01:07:40.548Z,96248
2022-10-04T01:08:48.247Z,96243
2022-10-04T01:09:56.908Z,96249
2022-10-04T01:11:06.601Z,96249
2022-10-04T01:12:14.259Z,96250
2022-10-04T01:13:22.934Z,96248
2022-10-04T01:14:32.636Z,96244
2022-10-04T01:15:41.371Z,96245
2022-10-04T01:16:50.989Z,96242
2022-10-04T01:18:01.868Z,96237
2022-10-04T01:19:07.313Z,96234
2022-10-04T01:20:17.015Z,96234
2022-10-04T01:21:25.728Z,96234
2022-10-04T01:22:35.382Z,96236
2022-10-04T01:23:44.049Z,96233
2022-10-04T01:24:52.724Z,96235
2022-10-04T01:26:03.475Z,96238
2022-10-04T01:27:11.166Z,96233
2022-10-04T01:28:19.875Z,96226
2022-10-04T01:29:29.603Z,96229
2022-10-04T01:30:39.304Z,96231
2022-10-04T01:31:49.102Z,96226
2022-10-04T01:32:56.717Z,96229
2022-10-04T01:34:05.390Z,96225
2022-10-04T01:35:15.068Z,96224
2022-10-04T01:36:23.744Z,96232
2022-10-04T01:37:33.595Z,96229
2022-10-04T01:38:42.144Z,96224
2022-10-04T01:39:51.819Z,96222
2022-10-04T01:41:01.500Z,96221
2022-10-04T01:42:10.179Z,96221
2022-10-04T01:43:19.868Z,96226
2022-10-04T01:44:28.545Z,96224
2022-10-04T01:45:37.239Z,96219
2022-10-04T01:46:46.985Z,96223
2022-10-04T01:47:55.605Z,96226
2022-10-04T01:49:04.381Z,96217
2022-10-04T01:50:15.901Z,96217
2022-10-04T01:51:22.730Z,96213
2022-10-04T01:52:31.399Z,96212
2022-10-04T01:53:41.103Z,96217
2022-10-04T01:54:50.784Z,96218
2022-10-04T01:56:00.465Z,96217
2022-10-04T01:57:08.134Z,96214
2022-10-04T01:58:17.826Z,96208
2022-10-04T01:59:27.493Z,96207
2022-10-04T02:00:35.170Z,96206
2022-10-04T02:01:44.060Z,96207
2022-10-04T02:02:52.514Z,96204
2022-10-04T02:04:02.188Z,96199
2022-10-04T02:05:11.879Z,96201
2022-10-04T02:06:20.571Z,96198
2022-10-04T02:07:29.260Z,96196
2022-10-04T02:08:38.944Z,96195
2022-10-04T02:09:46.625Z,96198
2022-10-04T02:10:55.295Z,96193
2022-10-04T02:12:02.974Z,96188
2022-10-04T02:13:12.651Z,96188
2022-10-04T02:14:22.315Z,96183
2022-10-04T02:15:30.971Z,96187
2022-10-04T02:16:38.652Z,96186
2022-10-04T02:17:48.445Z,96185
2022-10-04T02:18:57.131Z,96186
2022-10-04T02:20:06.815Z,96183
2022-10-04T02:21:15.490Z,96181
2022-10-04T02:22:24.143Z,96178
2022-10-04T02:23:33.840Z,96180
2022-10-04T02:24:42.506Z,96179
2022-10-04T02:25:51.229Z,96192
2022-10-04T02:27:00.881Z,96190
2022-10-04T02:28:08.591Z,96192
2022-10-04T02:29:17.346Z,96190
2022-10-04T02:30:26.009Z,96185
2022-10-04T02:31:34.707Z,96184
2022-10-04T02:32:44.349Z,96180
2022-10-04T02:33:54.020Z,96177
2022-10-04T02:35:02.764Z,96178
2022-10-04T02:36:12.483Z,96180
2022-10-04T02:37:20.137Z,96177
2022-10-04T02:38:29.814Z,96177
2022-10-04T02:39:39.482Z,96177
2022-10-04T02:40:49.181Z,96176
2022-10-04T02:41:58.870Z,96180
2022-10-04T02:43:07.511Z,96184
2022-10-04T02:44:16.171Z,96192
2022-10-04T02:45:25.854Z,96191
2022-10-04T02:46:33.585Z,96196
2022-10-04T02:47:43.177Z,96198
2022-10-04T02:48:51.839Z,96199
2022-10-04T02:50:00.518Z,96198
2022-10-04T02:51:10.239Z,96189
2022-10-04T02:52:17.967Z,96190
2022-10-04T02:53:26.614Z,96185
2022-10-04T02:54:36.307Z,96187
2022-10-04T02:55:45.980Z,96187
2022-10-04T02:56:55.679Z,96189
2022-10-04T02:58:04.407Z,96193
2022-10-04T02:59:13.047Z,96191
2022-10-04T03:00:22.739Z,96195
2022-10-04T03:01:32.417Z,96191
2022-10-04T03:02:41.130Z,96189
2022-10-04T03:03:50.784Z,96187
2022-10-04T03:04:59.493Z,96190
2022-10-04T03:06:09.224Z,96191
2022-10-04T03:07:17.888Z,96192
2022-10-04T03:08:26.563Z,96191
2022-10-04T03:09:36.270Z,96187
2022-10-04T03:10:43.940Z,96184
2022-10-04T03:11:53.601Z,96180
2022-10-04T03:13:03.271Z,96179
2022-10-04T03:14:11.043Z,96182
2022-10-04T03:15:19.619Z,96185
2022-10-04T03:16:28.322Z,96183
2022-10-04T03:17:36.973Z,96184
2022-10-04T03:18:46.667Z,96183
2022-10-04T03:19:54.326Z,96182
2022-10-04T03:21:03.029Z,96183
2022-10-04T03:22:12.710Z,96186
2022-10-04T03:23:21.366Z,96186
2022-10-04T03:24:30.077Z,96189
2022-10-04T03:25:39.756Z,96180
2022-10-04T03:26:47.421Z,96178
2022-10-04T03:27:57.129Z,96175
2022-10-04T03:29:06.756Z,96178
2022-10-04T03:30:16.445Z,96182
2022-10-04T03:31:26.188Z,96180
2022-10-04T03:32:34.871Z,96180
2022-10-04T03:33:44.555Z,96176
2022-10-04T03:34:52.216Z,96172
2022-10-04T03:36:00.892Z,96175
2022-10-04T03:37:09.570Z,96169
2022-10-04T03:38:18.312Z,96170
2022-10-04T03:39:27.997Z,96173
2022-10-04T03:40:35.674Z,96172
2022-10-04T03:41:44.342Z,96176
2022-10-04T03:42:55.002Z,96181
2022-10-04T03:44:05.089Z,96183
2022-10-04T03:45:12.404Z,96179
2022-10-04T03:46:21.203Z,96181
2022-10-04T03:47:30.822Z,96180
2022-10-04T03:48:40.536Z,96182
2022-10-04T03:49:50.772Z,96180
2022-10-04T03:50:56.870Z,96180
2022-10-04T03:52:06.538Z,96184
2022-10-04T03:53:15.206Z,96178
2022-10-04T03:54:24.899Z,96185
2022-10-04T03:55:33.726Z,96181
2022-10-04T03:56:42.380Z,96183
2022-10-04T03:57:52.055Z,96180
2022-10-04T03:58:59.722Z,96179
2022-10-04T04:00:08.408Z,96177
2022-10-04T04:01:18.275Z,96175
2022-10-04T04:02:25.882Z,96180
2022-10-04T04:03:34.464Z,96179
2022-10-04T04:04:44.173Z,96183
2022-10-04T04:05:52.843Z,96183
2022-10-04T04:07:01.587Z,96183
2022-10-04T04:08:10.279Z,96181
2022-10-04T04:09:19.948Z,96175
2022-10-04T04:10:28.608Z,96175
2022-10-04T04:11:36.308Z,96177
2022-10-04T04:12:46.053Z,96180
2022-10-04T04:13:54.750Z,96175
2022-10-04T04:15:05.422Z,96175
2022-10-04T04:16:15.229Z,96176
2022-10-04T04:17:23.834Z,96181
2022-10-04T04:18:33.582Z,96174
2022-10-04T04:19:43.239Z,96174
2022-10-04T04:20:50.931Z,96173
2022-10-04T04:22:00.605Z,96172
2022-10-04T04:23:09.276Z,96172
2022-10-04T04:24:17.972Z,96175
2022-10-04T04:25:27.670Z,96173
2022-10-04T04:26:38.445Z,96173
2022-10-04T04:27:48.077Z,96172
2022-10-04T04:28:57.767Z,96174
2022-10-04T04:30:06.456Z,96170
2022-10-04T04:31:15.182Z,96173
2022-10-04T04:32:23.849Z,96174
2022-10-04T04:33:32.510Z,96175
2022-10-04T04:34:42.345Z,96180
2022-10-04T04:35:51.174Z,96180
2022-10-04T04:36:59.847Z,96180
2022-10-04T04:38:09.541Z,96185
2022-10-04T04:39:16.224Z,96184
2022-10-04T04:40:25.913Z,96183
2022-10-04T04:41:34.666Z,96180
2022-10-04T04:42:44.364Z,96182
2022-10-04T04:43:54.091Z,96186
2022-10-04T04:45:02.777Z,96184
2022-10-04T04:46:26.949Z,96184
2022-10-04T04:47:23.188Z,96188
2022-10-04T04:48:32.871Z,96188
2022-10-04T04:49:45.901Z,96191
2022-10-04T04:50:58.747Z,96192
2022-10-04T04:52:09.744Z,96183
2022-10-04T04:53:19.441Z,96183
2022-10-04T04:54:27.145Z,96183
2022-10-04T04:55:56.648Z,96184
2022-10-04T04:56:47.477Z,96176
2022-10-04T04:57:56.176Z,96172
2022-10-04T04:59:05.905Z,96173
2022-10-04T05:00:14.615Z,96172
2022-10-04T05:01:23.356Z,96173
2022-10-04T05:02:33.103Z,96177
2022-10-04T05:03:41.819Z,96177
2022-10-04T05:04:49.534Z,96177
2022-10-04T05:05:59.209Z,96177
2022-10-04T05:07:06.914Z,96177
2022-10-04T05:08:15.640Z,96169
2022-10-04T05:09:24.352Z,96165
2022-10-04T05:10:33.052Z,96164
2022-10-04T05:11:42.907Z,96168
2022-10-04T05:12:50.471Z,96174
2022-10-04T05:13:59.183Z,96178
2022-10-04T05:15:09.299Z,96187
2022-10-04T05:16:16.669Z,96192
2022-10-04T05:17:25.319Z,96193
2022-10-04T05:18:33.990Z,96196
2022-10-04T05:19:42.673Z,96193
2022-10-04T05:20:52.413Z,96192
2022-10-04T05:22:00.169Z,96186
2022-10-04T05:23:10.013Z,96185
2022-10-04T05:24:19.730Z,96188
2022-10-04T05:25:28.454Z,96186
2022-10-04T05:26:38.238Z,96184
2022-10-04T05:27:46.916Z,96179
2022-10-04T05:28:55.615Z,96186
2022-10-04T05:30:04.321Z,96185
2022-10-04T05:31:13.096Z,96189
2022-10-04T05:32:22.792Z,96192
2022-10-04T05:33:33.789Z,96192
2022-10-04T05:34:40.230Z,96194
2022-10-04T05:35:49.989Z,96193
2022-10-04T05:36:58.698Z,96191
2022-10-04T05:38:07.367Z,96187
2022-10-04T05:39:16.210Z,96188
2022-10-04T05:40:24.879Z,96185
2022-10-04T05:41:34.599Z,96178
2022-10-04T05:42:43.306Z,96175
2022-10-04T05:43:53.002Z,96180
2022-10-04T05:45:02.754Z,96171
2022-10-04T05:46:10.517Z,96170
2022-10-04T05:47:20.244Z,96170
2022-10-04T05:48:29.939Z,96174
2022-10-04T05:49:38.608Z,96177
2022-10-04T05:50:48.431Z,96178
2022-10-04T05:51:58.206Z,96178
2022-10-04T05:53:07.025Z,96176
2022-10-04T05:54:16.634Z,96171
2022-10-04T05:55:24.315Z,96174
2022-10-04T05:56:33.015Z,96172
2022-10-04T05:57:41.765Z,96169
2022-10-04T05:58:51.575Z,96170
2022-10-04T06:00:04.291Z,96167
2022-10-04T06:01:11.023Z,96168
2022-10-04T06:02:20.845Z,96169
2022-10-04T06:03:30.513Z,96172
2022-10-04T06:04:37.220Z,96179
2022-10-04T06:05:45.970Z,96179
2022-10-04T06:06:54.697Z,96181
2022-10-04T06:08:04.382Z,96183
2022-10-04T06:09:14.095Z,96183
2022-10-04T06:10:22.744Z,96185
2022-10-04T06:11:31.419Z,96196
2022-10-04T06:12:44.240Z,96198
2022-10-04T06:13:49.836Z,96198
2022-10-04T06:14:58.515Z,96206
2022-10-04T06:16:06.162Z,96196
2022-10-04T06:17:15.831Z,96193
2022-10-04T06:18:25.519Z,96191
2022-10-04T06:19:33.204Z,96183
2022-10-04T06:20:41.889Z,96182
2022-10-04T06:21:51.580Z,96173
2022-10-04T06:22:59.251Z,96180
2022-10-04T06:24:07.968Z,96183
2022-10-04T06:25:17.694Z,96186
2022-10-04T06:26:27.352Z,96188
2022-10-04T06:27:37.042Z,96182
2022-10-04T06:28:44.726Z,96178
2022-10-04T06:29:53.434Z,96183
2022-10-04T06:31:03.226Z,96183
2022-10-04T06:32:11.826Z,96183
2022-10-04T06:33:20.506Z,96184
2022-10-04T06:34:29.197Z,96186
2022-10-04T06:35:37.864Z,96185
2022-10-04T06:36:47.579Z,96185
2022-10-04T06:37:56.314Z,96184
2022-10-04T06:39:04.977Z,96182
2022-10-04T06:40:14.674Z,96181
2022-10-04T06:41:22.372Z,96183
2022-10-04T06:42:32.074Z,96185
2022-10-04T06:43:40.737Z,96190
2022-10-04T06:44:49.409Z,96196
2022-10-04T06:45:59.139Z,96190
2022-10-04T06:47:06.740Z,96190
2022-10-04T06:48:16.425Z,96186
2022-10-04T06:49:25.101Z,96190
2022-10-04T06:50:34.778Z,96189
2022-10-04T06:51:44.774Z,96183
2022-10-04T06:52:53.137Z,96185
2022-10-04T06:54:01.821Z,96181
2022-10-04T06:55:10.503Z,96189
2022-10-04T06:56:19.209Z,96191
2022-10-04T06:57:27.942Z,96193
2022-10-04T06:58:37.601Z,96190
2022-10-04T06:59:46.347Z,96190
2022-10-04T07:00:56.062Z,96190
2022-10-04T07:02:05.750Z,96184
2022-10-04T07:03:14.391Z,96187
2022-10-04T07:04:24.115Z,96188
2022-10-04T07:05:31.934Z,96191
2022-10-04T07:06:40.604Z,96188
2022-10-04T07:07:50.275Z,96186
2022-10-04T07:08:57.943Z,96183
2022-10-04T07:10:06.627Z,96181
2022-10-04T07:11:15.326Z,96180
2022-10-04T07:12:24.004Z,96171
2022-10-04T07:13:33.712Z,96174
2022-10-04T07:14:42.366Z,96173
2022-10-04T07:15:52.089Z,96174
2022-10-04T07:17:01.749Z,96186
2022-10-04T07:18:09.465Z,96187
2022-10-04T07:19:18.117Z,96191
2022-10-04T07:20:26.789Z,96192
2022-10-04T07:21:37.476Z,96191
2022-10-04T07:22:48.154Z,96191
2022-10-04T07:23:56.848Z,96184
2022-10-04T07:25:06.553Z,96189
2022-10-04T07:26:14.223Z,96187
2022-10-04T07:27:23.889Z,96192
2022-10-04T07:28:33.659Z,96195
2022-10-04T07:29:42.550Z,96203
2022-10-04T07:30:52.058Z,96202
2022-10-04T07:32:01.710Z,96199
2022-10-04T07:33:10.375Z,96202
2022-10-04T07:34:20.115Z,96199
2022-10-04T07:35:28.781Z,96201
2022-10-04T07:36:38.470Z,96201
2022-10-04T07:37:48.166Z,96200
2022-10-04T07:38:55.825Z,96203
2022-10-04T07:40:05.512Z,96207
2022-10-04T07:41:14.197Z,96208
2022-10-04T07:42:22.879Z,96214
2022-10-04T07:43:32.572Z,96208
2022-10-04T07:44:41.255Z,96210
2022-10-04T07:45:50.128Z,96211
2022-10-04T07:46:59.769Z,96217
2022-10-04T07:48:08.483Z,96213
2022-10-04T07:49:18.167Z,96213
2022-10-04T07:50:27.838Z,96217
2022-10-04T07:51:36.532Z,96220
2022-10-04T07:52:46.247Z,96212
2022-10-04T07:53:53.952Z,96214
2022-10-04T07:55:02.617Z,96216
2022-10-04T07:56:12.328Z,96222
2022-10-04T07:57:20.986Z,96219
2022-10-04T07:58:29.708Z,96223
2022-10-04T07:59:38.411Z,96225
2022-10-04T08:00:47.103Z,96226
2022-10-04T08:01:56.866Z,96229
2022-10-04T08:03:04.501Z,96228
2022-10-04T08:04:13.147Z,96230
2022-10-04T08:05:22.870Z,96238
2022-10-04T08:06:30.592Z,96234
2022-10-04T08:07:40.275Z,96235
2022-10-04T08:08:49.037Z,96233
2022-10-04T08:09:58.731Z,96235
2022-10-04T08:11:08.430Z,96234
2022-10-04T08:12:17.096Z,96241
2022-10-04T08:13:25.757Z,96239
2022-10-04T08:14:35.498Z,96238
2022-10-04T08:15:43.274Z,96240
2022-10-04T08:16:52.887Z,96242
2022-10-04T08:18:01.764Z,96243
2022-10-04T08:19:11.417Z,96237
2022-10-04T08:20:21.097Z,96243
2022-10-04T08:21:29.799Z,96241
2022-10-04T08:22:38.467Z,96239
2022-10-04T08:23:48.169Z,96239
2022-10-04T08:24:55.879Z,96234
2022-10-04T08:26:04.554Z,96233
2022-10-04T08:27:13.214Z,96231
2022-10-04T08:28:21.920Z,96231
2022-10-04T08:29:31.597Z,96229
2022-10-04T08:30:39.327Z,96229
2022-10-04T08:31:49.043Z,96234
2022-10-04T08:32:58.746Z,96235
2022-10-04T08:34:06.448Z,96236
2022-10-04T08:35:15.124Z,96239
2022-10-04T08:36:23.812Z,96237
2022-10-04T08:37:33.519Z,96243
2022-10-04T08:38:43.211Z,96240
2022-10-04T08:39:50.862Z,96237
2022-10-04T08:40:59.558Z,96244
2022-10-04T08:42:09.224Z,96240
2022-10-04T08:43:17.952Z,96235
2022-10-04T08:44:27.618Z,96238
2022-10-04T08:45:36.300Z,96234
2022-10-04T08:46:46.399Z,96240
2022-10-04T08:47:55.689Z,96237
2022-10-04T08:49:05.447Z,96241
2022-10-04T08:50:14.147Z,96239
2022-10-04T08:51:23.798Z,96236
2022-10-04T08:52:31.477Z,96234
2022-10-04T08:53:40.140Z,96234
2022-10-04T08:54:48.877Z,96235
2022-10-04T08:55:58.548Z,96233
2022-10-04T08:57:11.212Z,96227
2022-10-04T08:58:18.858Z,96224
2022-10-04T08:59:27.524Z,96225
2022-10-04T09:00:37.248Z,96225
2022-10-04T09:01:44.999Z,96215
2022-10-04T09:02:53.611Z,96217
2022-10-04T09:04:02.252Z,96215
2022-10-04T09:05:11.925Z,96217
2022-10-04T09:06:21.678Z,96219
2022-10-04T09:07:30.309Z,96213
2022-10-04T09:08:37.974Z,96212
2022-10-04T09:09:47.682Z,96219
2022-10-04T09:10:55.429Z,96217
2022-10-04T09:12:05.169Z,96219
2022-10-04T09:13:13.926Z,96217
2022-10-04T09:14:23.591Z,96216
2022-10-04T09:15:33.365Z,96223
2022-10-04T09:16:42.249Z,96219
2022-10-04T09:17:50.708Z,96222
2022-10-04T09:19:00.399Z,96219
2022-10-04T09:20:26.601Z,96220
2022-10-04T09:21:19.825Z,96224
2022-10-04T09:22:28.575Z,96222
2022-10-04T09:23:37.242Z,96222
2022-10-04T09:24:45.943Z,96224
2022-10-04T09:25:54.649Z,96224
2022-10-04T09:27:04.336Z,96224
2022-10-04T09:28:13.076Z,96224
2022-10-04T09:29:22.768Z,96222
2022-10-04T09:30:32.504Z,96223
2022-10-04T09:31:40.209Z,96223
2022-10-04T09:32:50.910Z,96224
2022-10-04T09:33:59.631Z,96221
2022-10-04T09:35:09.314Z,96221
2022-10-04T09:36:19.003Z,96222
2022-10-04T09:37:27.695Z,96225
2022-10-04T09:38:36.415Z,96229
2022-10-04T09:39:46.180Z,96231
2022-10-04T09:40:54.934Z,96227
2022-10-04T09:42:03.622Z,96226
2022-10-04T09:43:12.318Z,96229
2022-10-04T09:44:21.038Z,96226
2022-10-04T09:45:30.763Z,96228
2022-10-04T09:46:38.538Z,96221
2022-10-04T09:47:48.259Z,96219
2022-10-04T09:48:58.004Z,96226
2022-10-04T09:50:06.712Z,96220
2022-10-04T09:51:15.403Z,96215
2022-10-04T09:52:24.215Z,96216
2022-10-04T09:53:32.951Z,96210
2022-10-04T09:54:44.475Z,96211
2022-10-04T09:55:52.322Z,96213
2022-10-04T09:57:01.040Z,96214
2022-10-04T09:58:10.763Z,96218
2022-10-04T09:59:20.434Z,96217
2022-10-04T10:00:29.126Z,96216
2022-10-04T10:01:37.882Z,96217
2022-10-04T10:02:46.578Z,96215
2022-10-04T10:03:56.276Z,96215
2022-10-04T10:05:04.958Z,96214
2022-10-04T10:06:13.676Z,96212
2022-10-04T10:07:23.362Z,96219
2022-10-04T10:08:32.056Z,96221
2022-10-04T10:09:40.785Z,96221
2022-10-04T10:10:50.488Z,96225
2022-10-04T10:12:00.179Z,96223
2022-10-04T10:13:09.888Z,96221
2022-10-04T10:14:17.594Z,96225
2022-10-04T10:15:26.309Z,96231
2022-10-04T10:16:36.004Z,96227
2022-10-04T10:17:43.694Z,96230
2022-10-04T10:18:52.992Z,96230
2022-10-04T10:20:01.671Z,96225
2022-10-04T10:21:10.411Z,96225
2022-10-04T10:22:20.105Z,96222
2022-10-04T10:23:28.798Z,96221
2022-10-04T10:24:37.495Z,96224
2022-10-04T10:25:47.188Z,96224
2022-10-04T10:26:55.941Z,96220
2022-10-04T10:28:03.739Z,96215
2022-10-04T10:29:13.325Z,96216
2022-10-04T10:30:20.989Z,96214
2022-10-04T10:31:29.772Z,96216
2022-10-04T10:32:37.472Z,96219
2022-10-04T10:33:47.175Z,96218
2022-10-04T10:34:56.879Z,96218
2022-10-04T10:36:04.587Z,96221
2022-10-04T10:37:14.316Z,96221
2022-10-04T10:38:23.035Z,96224
2022-10-04T10:39:31.739Z,96223
2022-10-04T10:40:41.439Z,96224
2022-10-04T10:41:51.172Z,96226
2022-10-04T10:43:00.884Z,96227
2022-10-04T10:44:10.565Z,96229
2022-10-04T10:45:18.252Z,96234
2022-10-04T10:46:28.008Z,96237
2022-10-04T10:47:36.648Z,96238
2022-10-04T10:48:46.367Z,96240
2022-10-04T10:49:56.097Z,96245
2022-10-04T10:51:03.787Z,96246
2022-10-04T10:52:13.537Z,96245
2022-10-04T10:53:23.249Z,96244
2022-10-04T10:54:31.969Z,96244
2022-10-04T10:55:40.771Z,96244
2022-10-04T10:56:49.481Z,96244
2022-10-04T10:57:58.173Z,96240
2022-10-04T10:59:07.963Z,96240
2022-10-04T11:00:16.640Z,96241
2022-10-04T11:01:25.459Z,96239
2022-10-04T11:02:48.560Z,96239
2022-10-04T11:03:45.838Z,96236
2022-10-04T11:04:55.434Z,96236
2022-10-04T11:06:05.139Z,96240
2022-10-04T11:07:13.833Z,96234
2022-10-04T11:08:22.512Z,96236
2022-10-04T11:09:30.171Z,96231
2022-10-04T11:10:38.830Z,96226
2022-10-04T11:11:49.539Z,96228
2022-10-04T11:12:57.264Z,96224
2022-10-04T11:14:05.933Z,96224
2022-10-04T11:15:14.673Z,96221
2022-10-04T11:16:24.389Z,96217
2022-10-04T11:17:34.036Z,96222
2022-10-04T11:18:41.785Z,96220
2022-10-04T11:19:51.467Z,96219
2022-10-04T11:21:00.159Z,96219
2022-10-04T11:22:08.883Z,96221
2022-10-04T11:23:18.630Z,96223
2022-10-04T11:24:27.362Z,96227
2022-10-04T11:25:37.060Z,96226
2022-10-04T11:26:47.122Z,96221
2022-10-04T11:27:57.333Z,96222
2022-10-04T11:29:05.171Z,96220
2022-10-04T11:30:14.848Z,96218
2022-10-04T11:31:23.695Z,96221
2022-10-04T11:32:33.278Z,96216
2022-10-04T11:33:41.010Z,96216
2022-10-04T11:34:49.697Z,96217
2022-10-04T11:35:57.416Z,96217
2022-10-04T11:37:07.083Z,96220
2022-10-04T11:38:16.793Z,96214
2022-10-04T11:39:25.500Z,96212
2022-10-04T11:40:35.231Z,96212
2022-10-04T11:41:44.969Z,96214
2022-10-04T11:42:53.654Z,96213
2022-10-04T11:44:02.354Z,96206
2022-10-04T11:45:11.043Z,96208
2022-10-04T11:46:19.750Z,96202
2022-10-04T11:47:29.479Z,96204
2022-10-04T11:48:37.138Z,96201
2022-10-04T11:49:46.820Z,96202
2022-10-04T11:50:56.513Z,96203
2022-10-04T11:52:04.183Z,96202
2022-10-04T11:53:12.914Z,96206
2022-10-04T11:54:21.617Z,96200
2022-10-04T11:55:30.289Z,96208
2022-10-04T11:56:38.971Z,96210
2022-10-04T11:57:48.650Z,96210
2022-10-04T11:58:57.386Z,96213
2022-10-04T12:00:07.087Z,96214
2022-10-04T12:01:16.878Z,96210
2022-10-04T12:02:26.573Z,96209
2022-10-04T12:03:35.383Z,96202
2022-10-04T12:04:45.093Z,96203
2022-10-04T12:05:53.697Z,96203
2022-10-04T12:07:01.403Z,96199
2022-10-04T12:08:11.139Z,96198
2022-10-04T12:09:20.838Z,96197
2022-10-04T12:10:28.522Z,96194
2022-10-04T12:11:37.227Z,96189
2022-10-04T12:12:46.908Z,96189
2022-10-04T12:13:55.606Z,96192
2022-10-04T12:15:05.323Z,96188
2022-10-04T12:16:13.151Z,96186
2022-10-04T12:17:21.704Z,96185
2022-10-04T12:18:31.397Z,96185
2022-10-04T12:19:39.112Z,96185
2022-10-04T12:20:47.753Z,96183
2022-10-04T12:21:56.478Z,96182
2022-10-04T12:23:05.216Z,96184
2022-10-04T12:24:14.934Z,96178
2022-10-04T12:25:23.609Z,96179
2022-10-04T12:26:33.273Z,96175
2022-10-04T12:27:42.987Z,96183
2022-10-04T12:28:50.661Z,96176
2022-10-04T12:30:00.350Z,96177
2022-10-04T12:31:09.089Z,96176
2022-10-04T12:32:17.711Z,96177
2022-10-04T12:33:27.401Z,96172
2022-10-04T12:34:36.086Z,96172
2022-10-04T12:35:44.824Z,96170
2022-10-04T12:36:54.552Z,96167
2022-10-04T12:38:02.318Z,96165
2022-10-04T12:39:11.056Z,96166
2022-10-04T12:40:20.770Z,96163
2022-10-04T12:41:29.424Z,96165
2022-10-04T12:42:39.107Z,96164
2022-10-04T12:43:47.798Z,96163
2022-10-04T12:44:56.527Z,96166
2022-10-04T12:46:06.309Z,96165
2022-10-04T12:47:13.923Z,96162
2022-10-04T12:48:23.608Z,96167
2022-10-04T12:49:32.311Z,96170
2022-10-04T12:50:41.080Z,96169
2022-10-04T12:51:50.862Z,96171
2022-10-04T12:53:00.435Z,96171
2022-10-04T12:54:09.120Z,96171
2022-10-04T12:55:18.814Z,96170
2022-10-04T12:56:26.616Z,96171
2022-10-04T12:57:35.316Z,96168
2022-10-04T12:58:44.019Z,96169
2022-10-04T12:59:52.701Z,96163
2022-10-04T13:01:02.594Z,96171
2022-10-04T13:02:10.135Z,96168
2022-10-04T13:03:18.763Z,96163
2022-10-04T13:04:28.448Z,96166
2022-10-04T13:05:36.130Z,96170
2022-10-04T13:06:45.202Z,96166
2022-10-04T13:07:54.567Z,96166
2022-10-04T13:09:04.246Z,96168
2022-10-04T13:10:23.959Z,96163
2022-10-04T13:11:24.611Z,96165
2022-10-04T13:12:33.315Z,96160
2022-10-04T13:13:43.043Z,96162
2022-10-04T13:14:50.706Z,96158
2022-10-04T13:17:36.711Z,96155
2022-10-04T13:18:21.715Z,96153
2022-10-04T13:19:30.448Z,96157
2022-10-04T13:20:40.142Z,96156
2022-10-04T13:21:49.846Z,96161
2022-10-04T13:22:58.222Z,96157
2022-10-04T13:24:06.341Z,96151
2022-10-04T13:25:16.070Z,96152
2022-10-04T13:26:24.760Z,96154
2022-10-04T13:27:33.448Z,96153
2022-10-04T13:28:42.140Z,96153
2022-10-04T13:29:51.899Z,96151
2022-10-04T13:31:01.621Z,96151
2022-10-04T13:32:09.388Z,96147
2022-10-04T13:33:19.075Z,96143
2022-10-04T13:34:28.767Z,96143
2022-10-04T13:35:37.435Z,96143
2022-10-04T13:36:45.170Z,96149
2022-10-04T13:37:54.849Z,96151
2022-10-04T13:39:03.557Z,96144
2022-10-04T13:40:13.211Z,96144
2022-10-04T13:41:21.883Z,96146
2022-10-04T13:42:30.587Z,96146
2022-10-04T13:43:40.287Z,96149
2022-10-04T13:44:47.987Z,96146
2022-10-04T13:45:56.737Z,96147
2022-10-04T13:47:05.398Z,96149
2022-10-04T13:48:17.091Z,96149
2022-10-04T13:49:24.756Z,96148
2022-10-04T13:50:33.462Z,96151
2022-10-04T13:51:42.396Z,96154
2022-10-04T13:52:51.840Z,96154
2022-10-04T13:54:00.538Z,96158
2022-10-04T13:55:09.236Z,96160
2022-10-04T13:56:18.896Z,96158
2022-10-04T13:57:27.625Z,96162
2022-10-04T13:58:37.322Z,96163
2022-10-04T13:59:45.015Z,96167
2022-10-04T14:00:53.795Z,96163
2022-10-04T14:02:03.408Z,96166
2022-10-04T14:03:11.154Z,96165
2022-10-04T14:04:20.805Z,96163
2022-10-04T14:05:29.641Z,96164
2022-10-04T14:06:38.351Z,96161
2022-10-04T14:07:48.068Z,96167
2022-10-04T14:08:56.828Z,96164
2022-10-04T14:10:05.509Z,96159
2022-10-04T14:11:15.233Z,96163
2022-10-04T14:12:23.889Z,96162
2022-10-04T14:13:31.581Z,96162
2022-10-04T14:14:41.269Z,96163
2022-10-04T14:15:49.941Z,96162
2022-10-04T14:16:59.652Z,96169
2022-10-04T14:18:07.367Z,96165
2022-10-04T14:19:17.065Z,96166
2022-10-04T14:20:26.740Z,96164
2022-10-04T14:21:35.442Z,96162
2022-10-04T14:22:45.178Z,96168
2022-10-04T14:23:54.889Z,96167
2022-10-04T14:25:03.624Z,96167
2022-10-04T14:26:13.315Z,96166
2022-10-04T14:27:22.111Z,96165
2022-10-04T14:28:32.068Z,96164
2022-10-04T14:29:41.750Z,96165
2022-10-04T14:30:49.418Z,96159
2022-10-04T14:31:58.130Z,96159
2022-10-04T14:33:06.784Z,96162
2022-10-04T14:34:15.502Z,96156
2022-10-04T14:35:25.208Z,96162
2022-10-04T14:36:32.916Z,96166
2022-10-04T14:37:41.609Z,96157
2022-10-04T14:38:51.360Z,96163
2022-10-04T14:40:00.138Z,96163
2022-10-04T14:41:09.912Z,96167
2022-10-04T14:42:18.630Z,96165
2022-10-04T14:43:27.314Z,96163
2022-10-04T14:44:38.844Z,96159
2022-10-04T14:45:47.746Z,96164
2022-10-04T14:46:56.397Z,96159
2022-10-04T14:48:06.082Z,96159
2022-10-04T14:49:14.796Z,96160
2022-10-04T14:50:24.621Z,96160